Time;durP1;ratioP1;P1;durP2;ratioP2;P2;SDS_P1;SDS_P2;PMS_P1;PMS_P2;Temp;Humidity;BMP_temperature;BMP_pressure;BME280_temperature;BME280_humidity;BME280_pressure;Samples;Min_cycle;Max_cycle;Signal;HPM_P1;HPM_P2
2022/01/31 00:02:16;;;;;;;19.53;3.20;;;;;;;;;;5069928;28;20028;-76
2022/01/31 00:04:42;;;;;;;16.03;3.57;;;;;;;;;;5070981;28;20051;-76
2022/01/31 00:07:09;;;;;;;16.53;3.07;;;;;;;;;;5070763;28;20056;-77
2022/01/31 00:09:35;;;;;;;17.07;2.70;;;;;;;;;;5069999;28;20025;-75
2022/01/31 00:12:07;;;;;;;15.83;3.43;;;;;;;;;;5071278;28;20025;-76
2022/01/31 00:14:38;;;;;;;16.33;3.72;;;;;;;;;;5069562;28;20120;-76
2022/01/31 00:17:05;;;;;;;20.92;4.13;;;;;;;;;;5070764;28;20020;-75
2022/01/31 00:19:31;;;;;;;23.93;4.77;;;;;;;;;;5087126;28;20024;-75
2022/01/31 00:21:57;;;;;;;17.40;3.83;;;;;;;;;;5074676;28;20020;-75
2022/01/31 00:24:22;;;;;;;14.60;3.23;;;;;;;;;;5075497;28;20024;-76
2022/01/31 00:26:48;;;;;;;18.27;3.43;;;;;;;;;;5071030;28;20411;-76
2022/01/31 00:29:13;;;;;;;23.60;4.03;;;;;;;;;;5070849;28;20111;-76
2022/01/31 00:31:39;;;;;;;16.40;2.43;;;;;;;;;;5070785;28;20040;-76
2022/01/31 00:34:04;;;;;;;27.60;3.50;;;;;;;;;;5070472;28;20043;-76
2022/01/31 00:36:30;;;;;;;18.93;3.17;;;;;;;;;;5070760;28;20025;-75
2022/01/31 00:38:56;;;;;;;22.07;3.00;;;;;;;;;;5070107;28;20041;-75
2022/01/31 00:41:21;;;;;;;20.33;3.77;;;;;;;;;;5068737;28;20031;-76
2022/01/31 00:43:57;;;;;;;21.07;3.33;;;;;;;;;;5068967;28;20032;-76
2022/01/31 00:46:28;;;;;;;22.10;2.70;;;;;;;;;;5085697;28;20032;-76
2022/01/31 00:48:54;;;;;;;16.88;3.33;;;;;;;;;;5068877;28;20103;-75
2022/01/31 00:51:19;;;;;;;19.57;3.47;;;;;;;;;;5070027;28;20120;-76
2022/01/31 00:53:45;;;;;;;21.47;3.23;;;;;;;;;;5085866;28;20058;-77
2022/01/31 00:56:10;;;;;;;19.30;3.33;;;;;;;;;;5070291;28;20031;-77
2022/01/31 00:58:36;;;;;;;23.30;5.83;;;;;;;;;;5068922;28;20063;-77
2022/01/31 01:01:02;;;;;;;16.03;2.87;;;;;;;;;;5070008;28;20028;-76
2022/01/31 01:03:28;;;;;;;15.10;3.47;;;;;;;;;;5070149;28;20028;-75
2022/01/31 01:05:53;;;;;;;16.50;2.87;;;;;;;;;;5068701;28;20549;-75
2022/01/31 01:08:19;;;;;;;19.57;3.07;;;;;;;;;;5068435;28;20039;-75
2022/01/31 01:10:45;;;;;;;20.97;3.23;;;;;;;;;;5069886;28;20043;-76
2022/01/31 01:13:12;;;;;;;15.47;2.73;;;;;;;;;;5069764;28;20445;-76
2022/01/31 01:15:38;;;;;;;19.87;3.47;;;;;;;;;;5068368;28;20021;-75
2022/01/31 01:18:04;;;;;;;46.87;17.77;;;;;;;;;;5068980;28;20043;-74
2022/01/31 01:20:29;;;;;;;15.33;3.53;;;;;;;;;;5068554;28;20477;-75
2022/01/31 01:22:55;;;;;;;18.40;3.00;;;;;;;;;;5068518;28;20032;-76
2022/01/31 01:25:21;;;;;;;12.47;2.87;;;;;;;;;;5068235;28;20024;-73
2022/01/31 01:27:50;;;;;;;16.43;2.83;;;;;;;;;;5068345;28;20079;-76
2022/01/31 01:30:15;;;;;;;19.43;2.90;;;;;;;;;;5069308;28;20526;-76
2022/01/31 01:33:00;;;;;;;22.30;4.13;;;;;;;;;;5068541;28;20036;-76
2022/01/31 01:35:31;;;;;;;19.97;4.70;;;;;;;;;;5068214;28;20021;-76
2022/01/31 01:37:59;;;;;;;15.63;2.87;;;;;;;;;;5068327;28;20024;-76
2022/01/31 01:40:25;;;;;;;17.47;2.87;;;;;;;;;;5067757;28;20488;-76
2022/01/31 01:42:51;;;;;;;13.00;2.93;;;;;;;;;;5071093;28;20112;-76
2022/01/31 01:45:16;;;;;;;13.00;3.07;;;;;;;;;;5068514;28;20404;-76
2022/01/31 01:47:42;;;;;;;22.33;2.83;;;;;;;;;;5068122;28;20477;-75
2022/01/31 01:50:08;;;;;;;16.83;2.40;;;;;;;;;;5067896;28;20054;-74
2022/01/31 01:52:33;;;;;;;12.40;2.60;;;;;;;;;;5069338;28;20123;-75
2022/01/31 01:55:00;;;;;;;20.27;3.23;;;;;;;;;;5069210;28;20452;-76
2022/01/31 01:57:27;;;;;;;23.00;3.60;;;;;;;;;;5067822;28;20028;-77
2022/01/31 01:59:57;;;;;;;18.53;2.90;;;;;;;;;;5069446;28;20027;-76
2022/01/31 02:02:23;;;;;;;28.77;3.27;;;;;;;;;;5067773;28;20037;-76
2022/01/31 02:04:48;;;;;;;19.23;3.23;;;;;;;;;;5068064;28;20032;-76
2022/01/31 02:07:14;;;;;;;23.67;3.27;;;;;;;;;;5067647;28;20407;-76
2022/01/31 02:09:45;;;;;;;7.97;2.00;;;;;;;;;;5069398;28;20031;-76
2022/01/31 02:12:11;;;;;;;19.27;3.20;;;;;;;;;;5067695;28;20017;-76
2022/01/31 02:14:37;;;;;;;13.27;2.60;;;;;;;;;;5069907;28;20030;-75
2022/01/31 02:17:03;;;;;;;23.57;3.30;;;;;;;;;;5067684;28;20395;-76
2022/01/31 02:19:29;;;;;;;15.77;2.77;;;;;;;;;;5084602;28;20098;-75
2022/01/31 02:21:55;;;;;;;17.47;3.00;;;;;;;;;;5069110;28;20028;-76
2022/01/31 02:24:20;;;;;;;7.20;2.37;;;;;;;;;;5068856;28;20037;-76
2022/01/31 02:26:46;;;;;;;11.77;2.40;;;;;;;;;;5069062;28;20035;-75
2022/01/31 02:29:12;;;;;;;16.63;2.83;;;;;;;;;;5071717;28;20419;-77
2022/01/31 02:31:43;;;;;;;17.67;2.70;;;;;;;;;;5072102;28;20031;-78
2022/01/31 02:34:08;;;;;;;22.87;3.23;;;;;;;;;;5073215;28;20468;-76
2022/01/31 02:36:34;;;;;;;14.23;2.63;;;;;;;;;;5071878;28;20032;-76
2022/01/31 02:38:59;;;;;;;20.93;3.27;;;;;;;;;;5072666;28;20056;-75
2022/01/31 02:41:27;;;;;;;23.33;3.00;;;;;;;;;;5071149;28;20029;-75
2022/01/31 02:43:54;;;;;;;17.57;2.90;;;;;;;;;;5072559;28;20048;-74
2022/01/31 02:46:23;;;;;;;25.73;3.53;;;;;;;;;;5072330;28;20031;-75
2022/01/31 02:48:51;;;;;;;18.37;4.47;;;;;;;;;;5072543;28;20032;-76
2022/01/31 02:51:21;;;;;;;25.77;3.30;;;;;;;;;;5087795;28;20021;-74
2022/01/31 02:53:47;;;;;;;13.53;3.03;;;;;;;;;;5072733;28;20103;-76
2022/01/31 02:56:12;;;;;;;15.20;2.97;;;;;;;;;;5072054;28;20024;-76
2022/01/31 02:58:38;;;;;;;19.00;2.80;;;;;;;;;;5072395;28;20027;-76
2022/01/31 03:01:04;;;;;;;20.23;2.80;;;;;;;;;;5072353;28;20043;-76
2022/01/31 03:03:30;;;;;;;25.60;3.30;;;;;;;;;;5072304;28;20024;-76
2022/01/31 03:05:56;;;;;;;18.23;3.70;;;;;;;;;;5071089;28;20507;-76
2022/01/31 03:08:24;;;;;;;15.40;2.93;;;;;;;;;;5072328;28;20327;-76
2022/01/31 03:10:51;;;;;;;22.07;3.37;;;;;;;;;;5072355;28;20032;-76
2022/01/31 03:13:17;;;;;;;17.63;3.37;;;;;;;;;;5070454;28;20070;-76
2022/01/31 03:15:42;;;;;;;17.87;4.33;;;;;;;;;;5070635;28;20104;-76
2022/01/31 03:18:08;;;;;;;16.70;2.63;;;;;;;;;;5072070;28;20175;-75
2022/01/31 03:20:34;;;;;;;11.47;2.17;;;;;;;;;;5072136;28;20024;-75
2022/01/31 03:23:00;;;;;;;19.67;3.23;;;;;;;;;;5070898;28;20131;-76
2022/01/31 03:25:26;;;;;;;12.57;2.90;;;;;;;;;;5071985;28;20388;-76
2022/01/31 03:27:51;;;;;;;22.40;4.20;;;;;;;;;;5071987;28;20048;-77
2022/01/31 03:30:19;;;;;;;14.80;2.57;;;;;;;;;;5071889;28;20063;-75
2022/01/31 03:32:46;;;;;;;19.53;4.13;;;;;;;;;;5071667;28;20033;-74
2022/01/31 03:35:12;;;;;;;16.47;3.50;;;;;;;;;;5070183;28;20111;-73
2022/01/31 03:37:37;;;;;;;20.87;3.20;;;;;;;;;;5071711;28;20421;-73
2022/01/31 03:40:05;;;;;;;20.03;3.57;;;;;;;;;;5070613;28;20101;-74
2022/01/31 03:42:30;;;;;;;18.40;3.87;;;;;;;;;;5070134;28;20021;-71
2022/01/31 03:44:57;;;;;;;26.70;4.00;;;;;;;;;;5071722;28;20052;-74
2022/01/31 03:47:23;;;;;;;26.40;3.30;;;;;;;;;;5071320;28;20029;-73
2022/01/31 03:49:50;;;;;;;25.77;4.00;;;;;;;;;;5071592;28;20028;-73
2022/01/31 03:52:16;;;;;;;17.17;2.93;;;;;;;;;;5069900;28;20032;-72
2022/01/31 03:54:42;;;;;;;15.80;2.77;;;;;;;;;;5070107;28;20031;-72
2022/01/31 03:57:08;;;;;;;18.93;4.07;;;;;;;;;;5071323;28;20031;-73
2022/01/31 03:59:34;;;;;;;21.17;3.27;;;;;;;;;;5071114;28;20035;-74
2022/01/31 04:02:01;;;;;;;17.17;2.73;;;;;;;;;;5071602;28;20044;-72
2022/01/31 04:04:27;;;;;;;19.77;3.30;;;;;;;;;;5071050;28;20107;-73
2022/01/31 04:06:52;;;;;;;20.80;3.60;;;;;;;;;;5069704;28;20191;-73
2022/01/31 04:09:18;;;;;;;16.70;2.77;;;;;;;;;;5070812;28;20037;-73
2022/01/31 04:11:45;;;;;;;14.97;3.20;;;;;;;;;;5071089;28;20051;-73
2022/01/31 04:14:11;;;;;;;16.97;3.23;;;;;;;;;;5069513;28;20024;-73
2022/01/31 04:16:37;;;;;;;15.03;3.10;;;;;;;;;;5069389;28;20036;-73
2022/01/31 04:19:02;;;;;;;24.47;4.30;;;;;;;;;;5070920;28;20024;-74
2022/01/31 04:21:28;;;;;;;21.90;3.83;;;;;;;;;;5069501;28;20032;-73
2022/01/31 04:23:54;;;;;;;17.20;3.47;;;;;;;;;;5071155;28;20392;-74
2022/01/31 04:26:20;;;;;;;20.90;3.33;;;;;;;;;;5068996;28;20115;-74
2022/01/31 04:28:51;;;;;;;17.70;2.97;;;;;;;;;;5070455;28;20028;-72
2022/01/31 04:33:48;;;;;;;15.30;2.97;;;;;;;;;;5070523;28;20029;-73
2022/01/31 04:36:15;;;;;;;11.90;2.73;;;;;;;;;;5068808;28;20516;-72
2022/01/31 04:38:45;;;;;;;18.07;2.93;;;;;;;;;;5068920;28;20052;-74
2022/01/31 04:41:11;;;;;;;13.90;3.20;;;;;;;;;;5070398;28;20124;-73
2022/01/31 04:43:37;;;;;;;31.70;4.07;;;;;;;;;;5070214;28;20103;-73
2022/01/31 04:46:05;;;;;;;20.70;3.47;;;;;;;;;;5070373;28;20028;-74
2022/01/31 04:48:31;;;;;;;30.17;4.07;;;;;;;;;;5070391;28;20256;-73
2022/01/31 04:50:57;;;;;;;18.60;3.67;;;;;;;;;;5068886;28;20492;-74
2022/01/31 04:53:23;;;;;;;13.43;2.63;;;;;;;;;;5068842;28;20102;-73
2022/01/31 04:55:49;;;;;;;23.83;3.23;;;;;;;;;;5068717;28;20060;-73
2022/01/31 04:58:15;;;;;;;14.70;2.90;;;;;;;;;;5068431;28;20055;-73
2022/01/31 05:00:40;;;;;;;16.63;2.57;;;;;;;;;;5068998;28;20024;-73
2022/01/31 05:03:14;;;;;;;21.80;3.40;;;;;;;;;;5068630;28;20034;-73
2022/01/31 05:05:41;;;;;;;21.53;3.63;;;;;;;;;;5070059;28;20032;-74
2022/01/31 05:08:07;;;;;;;18.80;3.70;;;;;;;;;;5068510;28;20051;-75
2022/01/31 05:10:34;;;;;;;17.10;3.50;;;;;;;;;;5069909;28;20480;-74
2022/01/31 05:13:00;;;;;;;18.30;3.70;;;;;;;;;;5068629;28;20484;-74
2022/01/31 05:15:25;;;;;;;29.37;4.50;;;;;;;;;;5069583;28;20063;-72
2022/01/31 05:17:51;;;;;;;14.73;3.00;;;;;;;;;;5068883;28;20024;-74
2022/01/31 05:20:16;;;;;;;18.40;3.93;;;;;;;;;;5069613;28;20036;-73
2022/01/31 05:22:42;;;;;;;20.70;3.30;;;;;;;;;;5068221;28;20460;-74
2022/01/31 05:25:08;;;;;;;22.30;3.47;;;;;;;;;;5069650;28;20075;-74
2022/01/31 05:27:34;;;;;;;18.00;4.57;;;;;;;;;;5067491;28;20082;-73
2022/01/31 05:29:59;;;;;;;15.57;3.80;;;;;;;;;;5069423;28;20072;-73
2022/01/31 05:32:25;;;;;;;18.50;3.07;;;;;;;;;;5084785;28;20472;-74
2022/01/31 05:34:50;;;;;;;18.47;4.43;;;;;;;;;;5067915;28;20028;-72
2022/01/31 05:37:16;;;;;;;23.80;3.73;;;;;;;;;;5067944;28;20028;-73
2022/01/31 05:39:43;;;;;;;12.73;3.63;;;;;;;;;;5069437;28;20063;-73
2022/01/31 05:42:09;;;;;;;13.30;3.90;;;;;;;;;;5068384;28;20056;-73
2022/01/31 05:44:35;;;;;;;24.60;4.73;;;;;;;;;;5069392;28;20032;-73
2022/01/31 05:47:01;;;;;;;25.23;4.80;;;;;;;;;;5068239;28;20031;-74
2022/01/31 05:49:27;;;;;;;19.57;4.07;;;;;;;;;;5067719;28;20400;-73
2022/01/31 05:52:02;;;;;;;14.53;3.87;;;;;;;;;;5067534;28;20376;-74
2022/01/31 05:54:29;;;;;;;23.63;3.87;;;;;;;;;;5068891;28;20031;-73
2022/01/31 05:56:59;;;;;;;25.60;4.30;;;;;;;;;;5067723;28;20025;-73
2022/01/31 05:59:25;;;;;;;19.67;4.17;;;;;;;;;;5067562;28;20024;-73
2022/01/31 06:01:51;;;;;;;12.80;3.50;;;;;;;;;;5067784;28;20128;-73
2022/01/31 06:04:17;;;;;;;18.67;3.90;;;;;;;;;;5067174;28;20405;-74
2022/01/31 06:06:42;;;;;;;21.23;3.97;;;;;;;;;;5051069;28;20032;-73
2022/01/31 06:09:08;;;;;;;12.67;3.53;;;;;;;;;;5068798;28;20036;-73
2022/01/31 06:11:34;;;;;;;16.17;4.13;;;;;;;;;;5068614;28;20213;-73
2022/01/31 06:14:09;;;;;;;30.13;5.77;;;;;;;;;;5040378;28;20072;-76
2022/01/31 06:16:35;;;;;;;17.87;4.03;;;;;;;;;;5043372;28;20045;-73
2022/01/31 06:19:01;;;;;;;20.60;3.73;;;;;;;;;;5043625;28;20041;-73
2022/01/31 06:21:27;;;;;;;24.60;3.80;;;;;;;;;;5028376;28;20049;-72
2022/01/31 06:23:53;;;;;;;16.63;3.90;;;;;;;;;;5041463;28;20106;-73
2022/01/31 06:26:20;;;;;;;21.87;3.87;;;;;;;;;;5049214;28;20507;-73
2022/01/31 06:28:47;;;;;;;18.60;7.03;;;;;;;;;;5065631;28;20443;-73
2022/01/31 06:31:13;;;;;;;23.03;4.10;;;;;;;;;;5026997;28;20460;-74
2022/01/31 06:33:38;;;;;;;21.27;5.00;;;;;;;;;;5042683;28;20514;-74
2022/01/31 06:36:05;;;;;;;26.83;4.43;;;;;;;;;;5057480;28;20025;-75
2022/01/31 06:38:31;;;;;;;21.27;4.20;;;;;;;;;;5064149;28;20441;-74
2022/01/31 06:40:57;;;;;;;23.10;4.67;;;;;;;;;;5069886;28;20043;-73
2022/01/31 06:43:23;;;;;;;26.07;4.67;;;;;;;;;;5079364;28;20028;-73
2022/01/31 06:45:49;;;;;;;14.20;4.37;;;;;;;;;;5068547;28;20036;-73
2022/01/31 06:48:14;;;;;;;22.93;5.17;;;;;;;;;;5080434;28;20032;-73
2022/01/31 06:50:40;;;;;;;30.23;5.10;;;;;;;;;;5079270;28;20036;-74
2022/01/31 06:53:06;;;;;;;24.53;3.97;;;;;;;;;;5085310;28;20128;-75
2022/01/31 06:55:34;;;;;;;21.13;3.93;;;;;;;;;;5074325;28;20032;-73
2022/01/31 06:58:02;;;;;;;18.63;4.60;;;;;;;;;;5076443;28;20114;-74
2022/01/31 07:00:27;;;;;;;20.97;4.37;;;;;;;;;;5086406;28;20020;-73
2022/01/31 07:02:54;;;;;;;19.03;3.93;;;;;;;;;;5070325;28;20116;-73
2022/01/31 07:05:21;;;;;;;13.27;4.23;;;;;;;;;;5086682;28;20036;-73
2022/01/31 07:07:47;;;;;;;24.43;5.70;;;;;;;;;;5073477;28;20025;-73
2022/01/31 07:10:14;;;;;;;18.33;4.27;;;;;;;;;;5066890;28;20032;-74
2022/01/31 07:12:48;;;;;;;16.20;4.20;;;;;;;;;;5081557;28;20040;-74
2022/01/31 07:15:14;;;;;;;21.77;4.70;;;;;;;;;;5071113;28;20548;-73
2022/01/31 07:17:44;;;;;;;27.13;6.30;;;;;;;;;;5059102;28;20119;-74
2022/01/31 07:20:12;;;;;;;24.67;5.07;;;;;;;;;;5072773;28;20032;-73
2022/01/31 07:22:39;;;;;;;16.67;3.60;;;;;;;;;;5072524;28;20036;-73
2022/01/31 07:25:32;;;;;;;21.27;3.70;;;;;;;;;;5070652;28;20051;-75
2022/01/31 07:27:55;;;;;;;38.20;5.07;;;;;;;;;;5062535;28;20041;-73
2022/01/31 07:30:20;;;;;;;19.77;4.93;;;;;;;;;;5074371;28;20033;-73
2022/01/31 07:32:46;;;;;;;24.40;4.57;;;;;;;;;;5071133;28;20502;-74
2022/01/31 07:35:15;;;;;;;27.13;4.83;;;;;;;;;;5088755;28;20032;-73
2022/01/31 07:37:40;;;;;;;21.47;4.30;;;;;;;;;;5067642;28;20383;-73
2022/01/31 07:40:06;;;;;;;37.77;4.70;;;;;;;;;;5077361;28;20062;-73
2022/01/31 07:42:32;;;;;;;12.23;3.50;;;;;;;;;;5071116;28;20075;-73
2022/01/31 07:44:57;;;;;;;14.03;4.43;;;;;;;;;;5071213;28;20071;-73
2022/01/31 07:47:23;;;;;;;26.37;5.83;;;;;;;;;;5069982;28;20028;-75
2022/01/31 07:49:51;;;;;;;24.37;5.07;;;;;;;;;;5052203;28;20384;-73
2022/01/31 07:52:16;;;;;;;16.30;3.83;;;;;;;;;;5062419;28;20032;-74
2022/01/31 07:54:43;;;;;;;27.67;4.17;;;;;;;;;;5063278;28;20044;-73
2022/01/31 07:57:09;;;;;;;13.67;4.40;;;;;;;;;;5054113;28;20037;-73
2022/01/31 07:59:35;;;;;;;20.77;3.70;;;;;;;;;;5064355;28;20439;-73
2022/01/31 08:02:00;;;;;;;26.17;4.40;;;;;;;;;;5064964;28;20276;-73
2022/01/31 08:04:26;;;;;;;21.60;4.33;;;;;;;;;;5062699;28;20033;-74
2022/01/31 08:06:51;;;;;;;18.33;4.53;;;;;;;;;;5063321;28;20024;-73
2022/01/31 08:09:17;;;;;;;15.57;4.00;;;;;;;;;;5065195;28;20594;-73
2022/01/31 08:11:42;;;;;;;16.20;4.10;;;;;;;;;;5062586;28;20056;-72
2022/01/31 08:14:10;;;;;;;19.53;4.63;;;;;;;;;;5066481;28;20039;-73
2022/01/31 08:16:37;;;;;;;20.07;4.13;;;;;;;;;;5065309;28;20039;-74
2022/01/31 08:19:05;;;;;;;12.97;4.20;;;;;;;;;;5066146;28;20108;-72
2022/01/31 08:21:31;;;;;;;17.57;4.83;;;;;;;;;;5063060;28;20098;-73
2022/01/31 08:23:57;;;;;;;16.80;3.77;;;;;;;;;;5061921;28;20380;-72
2022/01/31 08:26:22;;;;;;;27.37;5.33;;;;;;;;;;5061512;28;20024;-73
2022/01/31 08:29:02;;;;;;;22.70;4.17;;;;;;;;;;5063169;28;20047;-72
2022/01/31 08:31:34;;;;;;;26.67;4.30;;;;;;;;;;5059860;28;20039;-74
2022/01/31 08:36:31;;;;;;;16.70;5.33;;;;;;;;;;5061637;28;20476;-72
2022/01/31 08:38:56;;;;;;;24.63;5.47;;;;;;;;;;5060789;28;20045;-72
2022/01/31 08:41:24;;;;;;;18.37;4.90;;;;;;;;;;5058551;28;20040;-72
2022/01/31 08:43:50;;;;;;;14.00;5.00;;;;;;;;;;5065375;28;20048;-74
2022/01/31 08:46:16;;;;;;;18.50;4.47;;;;;;;;;;5063312;28;20024;-73
2022/01/31 08:48:42;;;;;;;9.57;3.93;;;;;;;;;;5062832;28;20110;-73
2022/01/31 08:51:10;;;;;;;27.07;6.47;;;;;;;;;;5043847;28;20043;-73
2022/01/31 08:53:37;;;;;;;21.30;3.97;;;;;;;;;;5062685;28;20743;-73
2022/01/31 08:56:07;;;;;;;23.47;4.73;;;;;;;;;;5062593;28;20024;-73
2022/01/31 08:58:33;;;;;;;15.70;4.10;;;;;;;;;;5059530;28;20050;-74
2022/01/31 09:01:04;;;;;;;19.07;3.90;;;;;;;;;;5066607;28;20063;-73
2022/01/31 09:06:04;;;;;;;17.57;4.30;;;;;;;;;;5062917;28;20116;-73
2022/01/31 09:08:30;;;;;;;18.63;3.87;;;;;;;;;;5063432;28;20027;-74
2022/01/31 09:10:55;;;;;;;15.47;3.73;;;;;;;;;;5060409;28;20032;-77
2022/01/31 09:13:21;;;;;;;19.10;4.20;;;;;;;;;;5061994;28;20032;-74
2022/01/31 09:15:47;;;;;;;16.67;5.13;;;;;;;;;;5063032;28;20066;-74
2022/01/31 09:18:12;;;;;;;20.97;4.37;;;;;;;;;;5062458;28;20404;-74
2022/01/31 09:20:38;;;;;;;17.63;4.50;;;;;;;;;;5060467;28;20918;-72
2022/01/31 09:23:05;;;;;;;22.07;4.27;;;;;;;;;;5060079;28;20296;-73
2022/01/31 09:25:31;;;;;;;13.00;3.90;;;;;;;;;;5060900;28;20074;-75
2022/01/31 09:27:58;;;;;;;18.53;5.13;;;;;;;;;;5061003;28;20032;-73
2022/01/31 09:30:26;;;;;;;27.63;5.20;;;;;;;;;;5059074;28;20571;-74
2022/01/31 09:32:53;;;;;;;18.27;6.03;;;;;;;;;;5063495;28;20055;-74
2022/01/31 09:35:20;;;;;;;15.47;3.63;;;;;;;;;;5064717;28;20167;-74
2022/01/31 09:37:46;;;;;;;21.97;4.43;;;;;;;;;;5061353;28;20073;-73
2022/01/31 09:40:17;;;;;;;19.13;3.90;;;;;;;;;;5061520;28;20048;-73
2022/01/31 09:43:25;;;;;;;15.27;4.33;;;;;;;;;;5062266;28;20028;-73
2022/01/31 09:48:40;;;;;;;15.90;5.13;;;;;;;;;;5058683;28;20135;-72
2022/01/31 09:51:14;;;;;;;20.13;3.93;;;;;;;;;;5058064;28;21344;-72
2022/01/31 09:53:51;;;;;;;16.50;4.77;;;;;;;;;;5074557;28;20118;-74
2022/01/31 09:56:21;;;;;;;16.07;3.93;;;;;;;;;;5075287;28;20028;-73
2022/01/31 09:58:48;;;;;;;11.23;4.53;;;;;;;;;;5060454;28;20109;-73
2022/01/31 10:01:17;;;;;;;13.00;4.97;;;;;;;;;;5056334;28;20031;-73
2022/01/31 10:03:50;;;;;;;10.10;4.63;;;;;;;;;;5058703;28;20040;-73
2022/01/31 10:06:23;;;;;;;18.67;4.70;;;;;;;;;;5050395;28;20508;-73
2022/01/31 10:09:02;;;;;;;14.67;3.63;;;;;;;;;;5059250;28;20032;-74
2022/01/31 10:11:29;;;;;;;12.30;3.67;;;;;;;;;;5056137;28;20354;-73
2022/01/31 10:16:58;;;;;;;16.55;4.70;;;;;;;;;;5061443;28;20032;-73
2022/01/31 10:19:23;;;;;;;14.17;3.83;;;;;;;;;;5059636;28;20028;-73
2022/01/31 10:21:58;;;;;;;20.97;4.93;;;;;;;;;;5058507;28;20540;-72
2022/01/31 10:24:25;;;;;;;10.87;4.23;;;;;;;;;;5059832;28;20696;-74
2022/01/31 10:26:51;;;;;;;13.63;3.60;;;;;;;;;;5075162;28;20064;-73
2022/01/31 10:29:19;;;;;;;16.87;4.73;;;;;;;;;;5059880;28;20077;-74
2022/01/31 10:32:03;;;;;;;13.80;4.83;;;;;;;;;;5057865;28;20036;-73
2022/01/31 10:34:32;;;;;;;15.67;4.57;;;;;;;;;;5057212;28;20516;-72
2022/01/31 10:37:08;;;;;;;19.77;5.37;;;;;;;;;;5058882;28;20120;-73
2022/01/31 10:51:54;;;;;;;15.30;5.50;;;;;;;;;;5059377;28;20036;-73
2022/01/31 10:57:07;;;;;;;16.77;5.93;;;;;;;;;;5066052;28;20465;-74
2022/01/31 10:59:38;;;;;;;14.47;4.77;;;;;;;;;;5069702;28;20034;-73
2022/01/31 11:02:06;;;;;;;11.63;3.93;;;;;;;;;;5068296;28;20531;-73
2022/01/31 11:04:40;;;;;;;10.97;4.53;;;;;;;;;;5070090;28;20909;-74
2022/01/31 11:07:08;;;;;;;16.40;5.23;;;;;;;;;;5064533;28;20042;-73
2022/01/31 11:09:37;;;;;;;15.10;5.00;;;;;;;;;;5063592;28;20028;-74
2022/01/31 11:12:05;;;;;;;14.87;5.33;;;;;;;;;;5062377;28;20039;-74
2022/01/31 11:14:31;;;;;;;13.60;4.40;;;;;;;;;;5064444;28;20029;-74
2022/01/31 11:16:56;;;;;;;22.93;4.93;;;;;;;;;;5065176;28;20545;-74
2022/01/31 11:19:33;;;;;;;20.20;5.10;;;;;;;;;;5062342;28;20013;-75
2022/01/31 11:22:06;;;;;;;20.10;6.20;;;;;;;;;;5058471;28;20032;-74
2022/01/31 11:24:44;;;;;;;17.67;5.20;;;;;;;;;;5063169;28;20043;-74
2022/01/31 11:27:14;;;;;;;10.97;4.50;;;;;;;;;;5062109;28;20024;-73
2022/01/31 11:29:46;;;;;;;15.13;4.70;;;;;;;;;;5063046;28;20495;-75
2022/01/31 11:32:13;;;;;;;12.67;5.13;;;;;;;;;;5062731;28;20055;-74
2022/01/31 11:34:41;;;;;;;13.50;6.03;;;;;;;;;;5061149;28;20757;-75
2022/01/31 11:37:11;;;;;;;11.47;4.97;;;;;;;;;;5065880;28;20036;-75
2022/01/31 11:39:39;;;;;;;19.70;6.33;;;;;;;;;;5063492;28;20056;-74
2022/01/31 11:42:06;;;;;;;12.83;5.13;;;;;;;;;;5060346;28;20085;-74
2022/01/31 11:44:48;;;;;;;12.73;4.77;;;;;;;;;;5074260;28;20500;-73
2022/01/31 11:47:14;;;;;;;15.90;5.80;;;;;;;;;;5060107;28;20040;-73
2022/01/31 11:49:45;;;;;;;14.03;5.20;;;;;;;;;;5062150;28;20059;-73
2022/01/31 11:52:12;;;;;;;10.53;5.83;;;;;;;;;;5061855;28;20351;-74
2022/01/31 11:55:04;;;;;;;13.60;6.67;;;;;;;;;;5064165;28;20482;-74
2022/01/31 11:57:33;;;;;;;21.10;9.73;;;;;;;;;;5057497;28;20032;-74
2022/01/31 12:00:03;;;;;;;10.20;4.80;;;;;;;;;;5060671;28;20043;-75
2022/01/31 12:02:39;;;;;;;12.60;5.43;;;;;;;;;;5062312;28;20059;-73
2022/01/31 12:05:11;;;;;;;7.17;4.50;;;;;;;;;;5067214;28;20793;-73
2022/01/31 12:07:40;;;;;;;14.17;5.03;;;;;;;;;;5060969;28;21144;-75
2022/01/31 12:10:44;;;;;;;19.07;5.37;;;;;;;;;;5060122;28;20325;-74
2022/01/31 12:13:47;;;;;;;14.27;5.60;;;;;;;;;;5062410;28;20036;-75
2022/01/31 12:16:45;;;;;;;;;;;;;;;;;;5066807;28;20036;-74
2022/01/31 12:22:08;;;;;;;7.37;3.93;;;;;;;;;;5062531;28;20063;-73
2022/01/31 12:24:48;;;;;;;12.77;5.03;;;;;;;;;;5059598;28;20128;-74
2022/01/31 12:27:21;;;;;;;10.17;4.27;;;;;;;;;;5065093;28;20028;-74
2022/01/31 12:29:53;;;;;;;7.37;4.43;;;;;;;;;;5064405;28;20028;-74
2022/01/31 12:32:40;;;;;;;7.07;3.70;;;;;;;;;;5062231;28;20032;-74
2022/01/31 12:35:14;;;;;;;7.00;3.30;;;;;;;;;;5061173;28;20153;-73
2022/01/31 12:37:40;;;;;;;4.10;2.80;;;;;;;;;;5061620;28;21380;-74
2022/01/31 12:40:14;;;;;;;8.67;2.80;;;;;;;;;;5063433;28;20088;-74
2022/01/31 12:45:23;;;;;;;9.97;2.80;;;;;;;;;;5062379;28;20032;-75
2022/01/31 12:48:22;;;;;;;8.03;2.83;;;;;;;;;;5078369;28;20028;-74
2022/01/31 12:50:50;;;;;;;3.07;2.10;;;;;;;;;;5060545;28;20323;-74
2022/01/31 12:53:22;;;;;;;4.97;2.03;;;;;;;;;;5060446;28;20032;-75
2022/01/31 12:55:59;;;;;;;3.40;1.80;;;;;;;;;;5054855;28;21240;-74
2022/01/31 12:58:33;;;;;;;3.07;1.73;;;;;;;;;;5058583;28;20056;-74
2022/01/31 13:01:08;;;;;;;3.77;1.93;;;;;;;;;;5050495;28;20028;-75
2022/01/31 13:03:46;;;;;;;2.22;1.90;;;;;;;;;;5058001;28;20117;-74
2022/01/31 13:06:38;;;;;;;3.85;1.88;;;;;;;;;;5057645;28;20496;-75
2022/01/31 13:09:19;;;;;;;2.60;2.10;;;;;;;;;;5062143;28;20035;-75
2022/01/31 13:11:48;;;;;;;2.20;1.70;;;;;;;;;;5054654;28;20081;-74
2022/01/31 13:14:17;;;;;;;3.67;2.07;;;;;;;;;;5067582;28;20036;-73
2022/01/31 13:16:47;;;;;;;6.17;1.77;;;;;;;;;;5061015;28;20025;-74
2022/01/31 13:19:18;;;;;;;2.30;2.10;;;;;;;;;;5077919;28;20021;-74
2022/01/31 13:21:44;;;;;;;3.23;2.23;;;;;;;;;;5057537;28;20060;-73
2022/01/31 13:24:10;;;;;;;2.80;1.87;;;;;;;;;;5042558;28;20072;-74
2022/01/31 13:26:57;;;;;;;4.43;2.00;;;;;;;;;;5058465;28;20032;-75
2022/01/31 13:29:32;;;;;;;3.50;2.33;;;;;;;;;;5059083;28;20063;-74
2022/01/31 13:31:58;;;;;;;3.93;2.10;;;;;;;;;;5054771;28;20037;-74
2022/01/31 13:34:41;;;;;;;9.07;4.50;;;;;;;;;;5046250;28;20051;-75
2022/01/31 13:37:34;;;;;;;7.00;3.23;;;;;;;;;;5045778;28;20707;-75
2022/01/31 13:40:08;;;;;;;25.37;7.30;;;;;;;;;;5057854;28;20693;-75
2022/01/31 13:42:37;;;;;;;5.10;2.30;;;;;;;;;;5056861;28;20069;-74
2022/01/31 13:45:29;;;;;;;4.07;2.10;;;;;;;;;;5061538;28;20119;-77
2022/01/31 13:48:12;;;;;;;7.20;2.23;;;;;;;;;;5059550;28;20032;-73
2022/01/31 13:50:45;;;;;;;2.95;2.47;;;;;;;;;;5058349;28;20029;-75
2022/01/31 13:53:17;;;;;;;3.17;2.10;;;;;;;;;;5045573;28;20139;-74
2022/01/31 13:55:48;;;;;;;3.57;1.97;;;;;;;;;;5063756;28;20216;-75
2022/01/31 13:58:38;;;;;;;4.23;2.30;;;;;;;;;;5062606;28;20136;-76
2022/01/31 14:01:05;;;;;;;3.67;2.40;;;;;;;;;;5059786;28;20044;-75
2022/01/31 14:03:40;;;;;;;2.90;1.80;;;;;;;;;;5057159;28;20429;-75
2022/01/31 14:06:09;;;;;;;2.73;2.23;;;;;;;;;;5061507;28;20576;-75
2022/01/31 14:08:57;;;;;;;2.73;2.30;;;;;;;;;;5057860;28;20017;-74
2022/01/31 14:11:25;;;;;;;6.10;2.10;;;;;;;;;;5062170;28;20052;-75
2022/01/31 14:13:54;;;;;;;3.50;2.10;;;;;;;;;;5063039;28;20782;-74
2022/01/31 14:16:28;;;;;;;4.57;2.67;;;;;;;;;;5066967;28;20041;-74
2022/01/31 14:19:01;;;;;;;4.47;2.80;;;;;;;;;;5060976;28;20033;-75
2022/01/31 14:21:27;;;;;;;5.57;2.57;;;;;;;;;;5064931;28;20085;-74
2022/01/31 14:23:54;;;;;;;5.57;2.43;;;;;;;;;;5060936;28;20032;-74
2022/01/31 14:26:41;;;;;;;3.10;2.50;;;;;;;;;;5060714;28;20033;-74
2022/01/31 14:29:10;;;;;;;4.60;2.20;;;;;;;;;;5062918;28;20040;-75
2022/01/31 14:31:41;;;;;;;6.67;2.20;;;;;;;;;;5060854;28;20064;-74
2022/01/31 14:34:13;;;;;;;6.40;2.60;;;;;;;;;;5063241;28;20048;-74
2022/01/31 14:36:40;;;;;;;4.10;1.70;;;;;;;;;;5065180;28;20853;-74
2022/01/31 14:49:42;;;;;;;7.57;2.90;;;;;;;;;;5066563;28;20123;-75
2022/01/31 14:52:09;;;;;;;4.83;2.70;;;;;;;;;;5059891;28;20032;-75
2022/01/31 14:54:38;;;;;;;5.67;2.67;;;;;;;;;;5063767;28;20039;-74
2022/01/31 14:57:05;;;;;;;4.53;2.60;;;;;;;;;;5066646;28;20039;-74
2022/01/31 14:59:30;;;;;;;4.53;2.63;;;;;;;;;;5064213;28;20104;-75
2022/01/31 15:01:56;;;;;;;4.97;2.87;;;;;;;;;;5060331;28;20131;-75
2022/01/31 15:04:24;;;;;;;5.57;2.70;;;;;;;;;;5066839;28;20135;-76
2022/01/31 15:06:51;;;;;;;5.83;2.80;;;;;;;;;;5064472;28;20044;-74
2022/01/31 15:09:17;;;;;;;3.43;2.60;;;;;;;;;;5067727;28;20032;-76
2022/01/31 15:11:44;;;;;;;6.30;2.57;;;;;;;;;;5064406;28;20116;-74
2022/01/31 15:14:10;;;;;;;5.37;2.83;;;;;;;;;;5069162;28;20037;-75
2022/01/31 15:16:38;;;;;;;5.47;3.50;;;;;;;;;;5067985;28;20407;-75
2022/01/31 15:19:03;;;;;;;2.63;2.43;;;;;;;;;;5072296;28;20128;-75
2022/01/31 15:21:33;;;;;;;7.40;2.93;;;;;;;;;;5071000;28;20485;-75
2022/01/31 15:23:59;;;;;;;3.00;2.70;;;;;;;;;;5084614;28;20078;-75
2022/01/31 15:26:24;;;;;;;4.03;2.43;;;;;;;;;;5079337;28;20488;-75
2022/01/31 15:28:50;;;;;;;12.50;4.57;;;;;;;;;;5069579;28;20036;-75